createdAt,value
2022-08-16T00:01:40.676Z,97059.33
2022-08-16T00:04:09.661Z,97060.70
2022-08-16T00:07:32.206Z,97064.17
2022-08-16T00:10:00.628Z,97067.14
2022-08-16T00:12:30.182Z,97066.51
2022-08-16T00:15:01.080Z,97066.20
2022-08-16T00:17:29.022Z,97062.82
2022-08-16T00:20:17.805Z,97061.09
2022-08-16T00:22:49.295Z,97063.50
2022-08-16T00:26:35.678Z,97062.09
2022-08-16T00:28:11.282Z,97061.78
2022-08-16T00:30:39.821Z,97061.89
2022-08-16T00:33:09.358Z,97063.10
2022-08-16T00:35:39.523Z,97067.64
2022-08-16T00:38:40.817Z,97069.71
2022-08-16T00:40:56.128Z,97069.27
2022-08-16T00:43:43.175Z,97067.19
2022-08-16T00:46:32.788Z,97069.82
2022-08-16T00:49:19.630Z,97068.47
2022-08-16T00:51:54.844Z,97068.07
2022-08-16T00:54:28.113Z,97068.67
2022-08-16T00:56:59.920Z,97071.46
2022-08-16T00:59:32.927Z,97072.05
2022-08-16T01:02:30.346Z,97070.84
2022-08-16T01:05:09.632Z,97070.94
2022-08-16T01:07:50.697Z,97069.01
2022-08-16T01:10:31.243Z,97066.34
2022-08-16T01:13:15.065Z,97064.68
2022-08-16T01:15:56.802Z,97060.44
2022-08-16T01:18:40.395Z,97063.17
2022-08-16T01:21:34.906Z,97064.25
2022-08-16T01:24:51.477Z,97065.08
2022-08-16T01:27:23.368Z,97065.23
2022-08-16T01:30:19.923Z,97067.99
2022-08-16T01:33:02.971Z,97067.08
2022-08-16T01:35:52.572Z,97066.73
2022-08-16T01:38:31.290Z,97064.25
2022-08-16T01:41:07.607Z,97060.83
2022-08-16T01:43:40.347Z,97059.34
2022-08-16T01:46:39.183Z,97056.36
2022-08-16T01:49:14.913Z,97062.83
2022-08-16T01:51:46.151Z,97061.00
2022-08-16T01:54:16.475Z,97063.44
2022-08-16T01:56:59.474Z,97064.39
2022-08-16T01:59:29.269Z,97064.30
2022-08-16T02:01:59.707Z,97063.20
2022-08-16T02:04:53.069Z,97064.99
2022-08-16T02:07:23.535Z,97062.48
2022-08-16T02:09:58.694Z,97063.26
2022-08-16T02:12:50.546Z,97060.02
2022-08-16T02:15:24.870Z,97061.95
2022-08-16T02:17:57.124Z,97062.93
2022-08-16T02:20:28.913Z,97061.42
2022-08-16T02:22:59.586Z,97061.85
2022-08-16T02:25:52.155Z,97067.84
2022-08-16T02:28:19.152Z,97066.13
2022-08-16T02:30:51.883Z,97068.66
2022-08-16T02:33:43.692Z,97073.89
2022-08-16T02:36:49.573Z,97075.30
2022-08-16T02:39:07.373Z,97073.52
2022-08-16T02:41:39.312Z,97075.64
2022-08-16T02:44:08.777Z,97077.67
2022-08-16T02:46:37.799Z,97082.43
2022-08-16T02:49:07.327Z,97083.23
2022-08-16T02:51:37.272Z,97080.08
2022-08-16T02:54:07.275Z,97083.67
2022-08-16T02:56:37.449Z,97089.05
2022-08-16T02:59:11.406Z,97093.54
2022-08-16T03:01:41.783Z,97093.08
2022-08-16T03:04:49.815Z,97089.20
2022-08-16T03:07:09.357Z,97087.80
2022-08-16T03:09:44.534Z,97092.00
2022-08-16T03:12:16.452Z,97094.08
2022-08-16T03:14:46.690Z,97097.46
2022-08-16T03:17:16.420Z,97098.20
2022-08-16T03:19:48.410Z,97095.73
2022-08-16T03:22:31.665Z,97094.54
2022-08-16T03:25:05.028Z,97098.20
2022-08-16T03:27:40.977Z,97103.98
2022-08-16T03:30:18.786Z,97104.31
2022-08-16T03:32:52.774Z,97100.27
2022-08-16T03:35:33.409Z,97099.09
2022-08-16T03:38:32.399Z,97102.77
2022-08-16T03:41:24.347Z,97104.20
2022-08-16T03:43:57.011Z,97104.56
2022-08-16T03:46:47.728Z,97106.30
2022-08-16T03:49:22.607Z,97107.46
2022-08-16T03:51:53.416Z,97106.16
2022-08-16T03:54:23.745Z,97107.27
2022-08-16T03:56:56.695Z,97109.15
2022-08-16T03:59:29.545Z,97115.77
2022-08-16T04:02:00.825Z,97115.35
2022-08-16T04:04:33.238Z,97116.86
2022-08-16T04:07:07.398Z,97117.77
2022-08-16T04:09:39.020Z,97119.57
2022-08-16T04:12:53.764Z,97116.83
2022-08-16T04:15:02.394Z,97118.10
2022-08-16T04:17:31.225Z,97117.94
2022-08-16T04:19:59.701Z,97120.27
2022-08-16T04:22:29.636Z,97116.73
2022-08-16T04:25:02.127Z,97116.23
2022-08-16T04:27:34.666Z,97112.23
2022-08-16T04:30:11.043Z,97112.86
2022-08-16T04:32:49.117Z,97109.73
2022-08-16T04:35:21.489Z,97109.75
2022-08-16T04:37:54.000Z,97111.19
2022-08-16T04:40:28.146Z,97105.91
2022-08-16T04:43:00.718Z,97105.12
2022-08-16T04:45:36.167Z,97103.39
2022-08-16T04:48:21.822Z,97105.22
2022-08-16T04:50:59.428Z,97106.45
2022-08-16T04:53:39.541Z,97107.70
2022-08-16T04:56:11.346Z,97112.61
2022-08-16T04:58:46.029Z,97113.44
2022-08-16T05:01:18.191Z,97116.21
2022-08-16T05:04:00.976Z,97114.77
2022-08-16T05:06:44.867Z,97120.69
2022-08-16T05:09:23.163Z,97121.58
2022-08-16T05:11:52.015Z,97122.29
2022-08-16T05:14:45.294Z,97120.85
2022-08-16T05:17:14.145Z,97124.95
2022-08-16T05:19:46.581Z,97126.08
2022-08-16T05:22:28.412Z,97127.36
2022-08-16T05:24:58.719Z,97128.48
2022-08-16T05:27:27.511Z,97131.27
2022-08-16T05:30:00.907Z,97133.46
2022-08-16T05:32:36.408Z,97133.64
2022-08-16T05:35:10.758Z,97131.20
2022-08-16T05:37:42.342Z,97135.80
2022-08-16T05:40:13.568Z,97145.67
2022-08-16T05:42:46.053Z,97151.63
2022-08-16T05:45:21.404Z,97158.86
2022-08-16T05:48:00.251Z,97158.95
2022-08-16T05:50:43.363Z,97155.75
2022-08-16T05:53:11.397Z,97157.28
2022-08-16T05:55:50.747Z,97157.91
2022-08-16T05:58:33.276Z,97157.64
2022-08-16T06:01:02.829Z,97158.02
2022-08-16T06:03:31.569Z,97156.36
2022-08-16T06:06:03.812Z,97162.35
2022-08-16T06:08:42.195Z,97161.14
2022-08-16T06:11:13.761Z,97157.31
2022-08-16T06:13:45.761Z,97149.11
2022-08-16T06:16:18.809Z,97148.37
2022-08-16T06:18:52.025Z,97145.73
2022-08-16T06:21:22.855Z,97142.83
2022-08-16T06:23:55.634Z,97147.89
2022-08-16T06:26:24.480Z,97148.48
2022-08-16T06:29:07.838Z,97140.30
2022-08-16T06:31:46.583Z,97135.36
2022-08-16T06:34:55.373Z,97136.11
2022-08-16T06:37:07.532Z,97132.75
2022-08-16T06:39:49.708Z,97132.06
2022-08-16T06:42:25.673Z,97136.09
2022-08-16T06:45:14.689Z,97135.41
2022-08-16T06:47:54.143Z,97130.19
2022-08-16T06:50:28.439Z,97129.79
2022-08-16T06:53:00.251Z,97133.89
2022-08-16T06:55:34.315Z,97134.61
2022-08-16T06:58:08.375Z,97132.77
2022-08-16T07:00:38.546Z,97130.12
2022-08-16T07:03:27.963Z,97138.30
2022-08-16T07:05:57.603Z,97136.36
2022-08-16T07:08:30.234Z,97139.45
2022-08-16T07:11:01.474Z,97137.74
2022-08-16T07:13:58.556Z,97139.04
2022-08-16T07:16:21.318Z,97142.49
2022-08-16T07:19:01.385Z,97144.02
2022-08-16T07:21:46.411Z,97136.82
2022-08-16T07:24:30.129Z,97142.06
2022-08-16T07:27:08.339Z,97142.27
2022-08-16T07:29:40.149Z,97142.49
2022-08-16T07:32:09.855Z,97143.46
2022-08-16T07:34:48.278Z,97147.06
2022-08-16T07:37:18.800Z,97152.70
2022-08-16T07:40:13.091Z,97152.52
2022-08-16T07:42:44.126Z,97154.02
2022-08-16T07:45:14.464Z,97150.23
2022-08-16T07:47:51.291Z,97149.02
2022-08-16T07:50:56.041Z,97154.45
2022-08-16T07:53:08.102Z,97158.56
2022-08-16T07:55:45.670Z,97162.39
2022-08-16T07:58:33.978Z,97167.91
2022-08-16T08:01:11.012Z,97175.35
2022-08-16T08:03:49.132Z,97183.19
2022-08-16T08:06:25.321Z,97189.61
2022-08-16T08:08:57.558Z,97190.85
2022-08-16T08:11:30.300Z,97194.23
2022-08-16T08:14:03.119Z,97194.19
2022-08-16T08:16:35.719Z,97197.61
2022-08-16T08:19:05.290Z,97194.27
2022-08-16T08:21:56.633Z,97193.10
2022-08-16T08:24:38.086Z,97190.95
2022-08-16T08:27:09.113Z,97188.17
2022-08-16T08:29:40.666Z,97189.30
2022-08-16T08:32:58.776Z,97192.80
2022-08-16T08:35:06.801Z,97197.90
2022-08-16T08:37:54.396Z,97189.17
2022-08-16T08:40:29.431Z,97205.57
2022-08-16T08:43:00.749Z,97207.48
2022-08-16T08:45:46.928Z,97213.19
2022-08-16T08:48:34.189Z,97221.42
2022-08-16T08:51:09.265Z,97221.90
2022-08-16T08:53:46.228Z,97225.00
2022-08-16T08:56:30.267Z,97228.94
2022-08-16T08:59:21.028Z,97229.13
2022-08-16T09:01:56.673Z,97232.24
2022-08-16T09:04:28.271Z,97231.16
2022-08-16T09:06:58.500Z,97235.42
2022-08-16T09:09:33.674Z,97231.59
2022-08-16T09:12:07.517Z,97229.25
2022-08-16T09:15:09.033Z,97233.89
2022-08-16T09:17:55.290Z,97234.03
2022-08-16T09:20:27.709Z,97232.63
2022-08-16T09:22:57.400Z,97233.02
2022-08-16T09:25:34.269Z,97229.51
2022-08-16T09:28:11.620Z,97227.95
2022-08-16T09:30:46.480Z,97231.36
2022-08-16T09:33:20.489Z,97231.80
2022-08-16T09:35:53.882Z,97237.05
2022-08-16T09:38:32.208Z,97238.73
2022-08-16T09:41:03.105Z,97233.69
2022-08-16T09:43:59.975Z,97232.48
2022-08-16T09:46:33.307Z,97235.95
2022-08-16T09:49:09.178Z,97235.55
2022-08-16T09:51:40.868Z,97234.73
2022-08-16T09:54:16.855Z,97235.48
2022-08-16T09:56:52.805Z,97234.52
2022-08-16T09:59:30.611Z,97238.51
2022-08-16T10:01:59.708Z,97239.77
2022-08-16T10:04:53.082Z,97237.53
2022-08-16T10:07:25.754Z,97233.59
2022-08-16T10:09:56.159Z,97233.48
2022-08-16T10:12:55.384Z,97226.27
2022-08-16T10:15:25.482Z,97231.71
2022-08-16T10:18:00.620Z,97231.30
2022-08-16T10:20:34.833Z,97229.95
2022-08-16T10:23:07.249Z,97226.02
2022-08-16T10:27:17.252Z,97223.62
2022-08-16T10:28:31.881Z,97217.11
2022-08-16T10:31:03.512Z,97221.31
2022-08-16T10:33:34.317Z,97221.71
2022-08-16T10:36:06.379Z,97216.99
2022-08-16T10:38:38.431Z,97217.05
2022-08-16T10:41:07.763Z,97220.16
2022-08-16T10:43:37.560Z,97215.37
2022-08-16T10:46:33.928Z,97211.20
2022-08-16T10:48:57.666Z,97210.52
2022-08-16T10:51:34.347Z,97210.15
2022-08-16T10:54:29.116Z,97207.79
2022-08-16T10:57:04.456Z,97205.02
2022-08-16T10:59:44.634Z,97201.16
2022-08-16T11:03:37.681Z,97201.64
2022-08-16T11:05:14.660Z,97197.39
2022-08-16T11:07:55.198Z,97190.29
2022-08-16T11:19:12.479Z,97166.29
2022-08-16T11:24:41.326Z,97159.94
2022-08-16T11:27:23.031Z,97153.20
2022-08-16T11:29:55.546Z,97149.26
2022-08-16T11:32:31.956Z,97146.86
2022-08-16T11:35:10.693Z,97151.20
2022-08-16T11:40:44.506Z,97148.48
2022-08-16T11:43:16.564Z,97143.15
2022-08-16T11:45:54.205Z,97141.40
2022-08-16T11:48:28.416Z,97135.33
2022-08-16T11:50:58.051Z,97133.77
2022-08-16T11:53:28.372Z,97136.84
2022-08-16T11:56:05.012Z,97137.58
2022-08-16T11:58:34.431Z,97139.05
2022-08-16T12:01:03.204Z,97134.19
2022-08-16T12:03:34.658Z,97133.98
2022-08-16T12:06:30.389Z,97137.14
2022-08-16T12:09:00.871Z,97134.44
2022-08-16T12:11:32.087Z,97132.83
2022-08-16T12:14:04.656Z,97132.33
2022-08-16T12:16:34.831Z,97135.32
2022-08-16T12:19:06.399Z,97134.84
2022-08-16T12:21:58.408Z,97129.21
2022-08-16T12:24:28.834Z,97127.95
2022-08-16T12:26:57.835Z,97128.08
2022-08-16T12:29:29.801Z,97128.00
2022-08-16T12:32:12.284Z,97124.23
2022-08-16T12:34:50.922Z,97120.68
2022-08-16T12:37:21.809Z,97113.44
2022-08-16T12:39:56.311Z,97109.63
2022-08-16T12:42:35.424Z,97107.45
2022-08-16T12:45:11.754Z,97109.25
2022-08-16T12:48:31.695Z,97105.38
2022-08-16T12:50:49.283Z,97103.96
2022-08-16T12:53:20.836Z,97098.24
2022-08-16T12:55:50.052Z,97094.42
2022-08-16T12:58:48.967Z,97089.80
2022-08-16T13:01:09.730Z,97084.30
2022-08-16T13:03:40.643Z,97078.55
2022-08-16T13:06:08.954Z,97076.11
2022-08-16T13:08:37.211Z,97076.86
2022-08-16T13:11:07.717Z,97072.52
2022-08-16T13:13:36.357Z,97071.16
2022-08-16T13:16:12.230Z,97067.60
2022-08-16T13:18:52.431Z,97064.13
2022-08-16T13:21:23.881Z,97066.02
2022-08-16T13:23:53.440Z,97061.55
2022-08-16T13:26:26.387Z,97064.15
2022-08-16T13:28:55.198Z,97058.63
2022-08-16T13:31:24.406Z,97056.75
2022-08-16T13:33:58.731Z,97056.44
2022-08-16T13:39:17.223Z,97051.32
2022-08-16T13:41:54.026Z,97052.61
2022-08-16T13:44:22.533Z,97048.52
2022-08-16T13:47:10.578Z,97046.17
2022-08-16T13:49:38.559Z,97054.05
2022-08-16T13:52:10.171Z,97053.91
2022-08-16T13:54:39.117Z,97055.69
2022-08-16T13:57:07.187Z,97051.92
2022-08-16T13:59:39.648Z,97048.77
2022-08-16T14:02:09.179Z,97046.73
2022-08-16T14:04:41.338Z,97046.59
2022-08-16T14:07:19.890Z,97043.13
2022-08-16T14:09:55.233Z,97036.66
2022-08-16T14:12:29.685Z,97034.30
2022-08-16T14:14:58.226Z,97036.09
2022-08-16T14:17:28.305Z,97036.58
2022-08-16T14:19:59.859Z,97037.70
2022-08-16T14:22:35.820Z,97038.02
2022-08-16T14:25:16.434Z,97037.30
2022-08-16T14:27:46.031Z,97034.46
2022-08-16T14:30:18.921Z,97029.92
2022-08-16T14:32:49.897Z,97034.55
2022-08-16T14:35:36.713Z,97035.08
2022-08-16T14:38:18.625Z,97036.12
2022-08-16T14:40:55.113Z,97037.23
2022-08-16T14:43:29.770Z,97036.20
2022-08-16T14:45:59.384Z,97036.48
2022-08-16T14:48:27.410Z,97034.25
2022-08-16T14:50:56.126Z,97037.02
2022-08-16T14:53:26.385Z,97040.02
2022-08-16T14:55:54.812Z,97039.95
2022-08-16T14:58:35.115Z,97043.59
2022-08-16T15:01:10.202Z,97040.45
2022-08-16T15:03:42.275Z,97036.73
2022-08-16T15:06:14.624Z,97042.63
2022-08-16T15:08:45.958Z,97037.29
2022-08-16T15:11:14.452Z,97036.77
2022-08-16T15:13:42.622Z,97038.21
2022-08-16T15:16:11.002Z,97037.46
2022-08-16T15:18:39.168Z,97033.48
2022-08-16T15:21:08.623Z,97031.63
2022-08-16T15:23:36.971Z,97028.95
2022-08-16T15:26:08.929Z,97029.14
2022-08-16T15:28:38.840Z,97030.92
2022-08-16T15:31:13.141Z,97026.15
2022-08-16T15:33:51.081Z,97025.88
2022-08-16T15:36:26.672Z,97019.27
2022-08-16T15:39:06.959Z,97020.35
2022-08-16T15:41:47.854Z,97017.77
2022-08-16T15:44:22.667Z,97024.46
2022-08-16T15:46:54.824Z,97023.02
2022-08-16T15:49:36.968Z,97022.74
2022-08-16T15:52:12.605Z,97016.30
2022-08-16T15:54:53.191Z,97015.23
2022-08-16T15:57:26.447Z,97015.52
2022-08-16T15:59:56.474Z,97017.76
2022-08-16T16:02:40.951Z,97015.30
2022-08-16T16:05:10.222Z,97019.15
2022-08-16T16:07:40.791Z,97022.66
2022-08-16T16:10:29.316Z,97019.95
2022-08-16T16:13:01.760Z,97015.64
2022-08-16T16:15:35.545Z,97018.45
2022-08-16T16:18:09.367Z,97020.69
2022-08-16T16:20:46.637Z,97022.08
2022-08-16T16:23:23.511Z,97024.21
2022-08-16T16:25:53.251Z,97022.38
2022-08-16T16:29:06.194Z,97026.90
2022-08-16T16:31:14.847Z,97036.66
2022-08-16T16:33:45.389Z,97041.11
2022-08-16T16:36:17.811Z,97044.02
2022-08-16T16:38:47.730Z,97048.40
2022-08-16T16:41:22.444Z,97045.34
2022-08-16T16:43:53.466Z,97050.48
2022-08-16T16:46:41.056Z,97049.17
2022-08-16T16:49:13.869Z,97051.88
2022-08-16T16:51:44.761Z,97051.38
2022-08-16T16:54:27.401Z,97050.77
2022-08-16T16:56:58.355Z,97055.66
2022-08-16T16:59:27.995Z,97058.48
2022-08-16T17:02:41.571Z,97056.96
2022-08-16T17:04:48.773Z,97058.98
2022-08-16T17:07:17.539Z,97064.66
2022-08-16T17:09:48.680Z,97067.91
2022-08-16T17:12:24.974Z,97070.03
2022-08-16T17:14:57.430Z,97081.09
2022-08-16T17:17:25.468Z,97085.36
2022-08-16T17:19:54.134Z,97086.73
2022-08-16T17:22:22.849Z,97089.51
2022-08-16T17:24:52.815Z,97093.82
2022-08-16T17:27:33.287Z,97094.91
2022-08-16T17:30:15.104Z,97097.05
2022-08-16T17:32:58.144Z,97099.88
2022-08-16T17:35:35.616Z,97103.88
2022-08-16T17:38:06.882Z,97109.05
2022-08-16T17:40:55.223Z,97108.73
2022-08-16T17:43:33.700Z,97112.24
2022-08-16T17:46:03.018Z,97120.99
2022-08-16T17:48:31.856Z,97123.54
2022-08-16T17:51:01.051Z,97125.47
2022-08-16T17:53:30.306Z,97125.83
2022-08-16T17:55:59.020Z,97127.83
2022-08-16T17:58:27.362Z,97129.73
2022-08-16T18:00:58.830Z,97130.93
2022-08-16T18:04:09.257Z,97131.40
2022-08-16T18:06:19.201Z,97131.54
2022-08-16T18:08:51.172Z,97129.51
2022-08-16T18:11:25.854Z,97131.23
2022-08-16T18:13:55.807Z,97135.39
2022-08-16T18:16:24.477Z,97138.36
2022-08-16T18:18:53.282Z,97141.39
2022-08-16T18:21:41.066Z,97144.98
2022-08-16T18:24:12.262Z,97152.23
2022-08-16T18:26:42.113Z,97154.77
2022-08-16T18:29:11.380Z,97157.28
2022-08-16T18:31:39.783Z,97162.30
2022-08-16T18:34:08.396Z,97169.34
2022-08-16T18:36:37.311Z,97198.22
2022-08-16T18:39:06.120Z,97222.47
2022-08-16T18:41:37.753Z,97221.34
2022-08-16T18:44:26.080Z,97213.04
2022-08-16T18:46:57.559Z,97225.97
2022-08-16T18:49:25.959Z,97233.63
2022-08-16T18:52:02.382Z,97237.71
2022-08-16T18:54:33.851Z,97238.58
2022-08-16T18:57:22.858Z,97245.39
2022-08-16T18:59:51.468Z,97248.45
2022-08-16T19:02:56.159Z,97252.39
2022-08-16T19:05:20.933Z,97257.48
2022-08-16T19:07:49.428Z,97254.86
2022-08-16T19:10:18.920Z,97260.84
2022-08-16T19:12:47.947Z,97267.39
2022-08-16T19:15:23.320Z,97278.20
2022-08-16T19:17:53.067Z,97285.77
2022-08-16T19:20:24.796Z,97292.92
2022-08-16T19:23:05.245Z,97301.57
2022-08-16T19:25:48.812Z,97309.23
2022-08-16T19:28:49.423Z,97321.76
2022-08-16T19:31:20.680Z,97329.12
2022-08-16T19:33:54.793Z,97330.89
2022-08-16T19:36:31.806Z,97332.27
2022-08-16T19:39:08.894Z,97332.56
2022-08-16T19:41:40.925Z,97339.75
2022-08-16T19:44:10.536Z,97341.48
2022-08-16T19:46:45.056Z,97369.91
2022-08-16T19:49:15.847Z,97399.10
2022-08-16T19:51:47.134Z,97398.86
2022-08-16T19:54:16.640Z,97397.26
2022-08-16T19:56:45.521Z,97390.76
2022-08-16T19:59:40.312Z,97375.17
2022-08-16T20:02:10.287Z,97365.00
2022-08-16T20:04:58.159Z,97362.61
2022-08-16T20:07:27.472Z,97356.65
2022-08-16T20:09:58.967Z,97346.02
2022-08-16T20:12:32.507Z,97343.50
2022-08-16T20:18:41.951Z,97340.79
2022-08-16T20:18:49.446Z,97330.57
2022-08-16T20:25:21.090Z,97324.75
2022-08-16T20:36:05.539Z,97312.96
2022-08-16T20:39:03.126Z,97311.27
2022-08-16T20:42:16.122Z,97294.39
2022-08-16T20:44:45.791Z,97288.74
2022-08-16T20:47:37.129Z,97280.77
2022-08-16T20:50:13.325Z,97278.73
2022-08-16T20:52:48.986Z,97280.96
2022-08-16T20:55:46.834Z,97280.30
2022-08-16T21:01:52.568Z,97260.73
2022-08-16T21:04:22.842Z,97256.70
2022-08-16T21:06:53.611Z,97247.47
2022-08-16T21:09:25.572Z,97247.02
2022-08-16T21:11:55.928Z,97252.58
2022-08-16T21:14:24.646Z,97250.00
2022-08-16T21:16:53.162Z,97254.19
2022-08-16T21:19:21.781Z,97251.83
2022-08-16T21:21:50.000Z,97250.86
2022-08-16T21:24:18.197Z,97244.98
2022-08-16T21:26:53.857Z,97244.08
2022-08-16T21:29:31.634Z,97244.98
2022-08-16T21:32:14.294Z,97243.86
2022-08-16T21:34:43.351Z,97247.52
2022-08-16T21:37:12.177Z,97247.45
2022-08-16T21:39:44.292Z,97248.20
2022-08-16T21:42:15.730Z,97245.89
2022-08-16T21:44:44.901Z,97243.92
2022-08-16T21:47:13.137Z,97242.40
2022-08-16T21:49:41.310Z,97245.19
2022-08-16T21:52:10.173Z,97243.76
2022-08-16T21:54:56.664Z,97243.82
2022-08-16T21:57:25.652Z,97250.20
2022-08-16T21:59:55.222Z,97256.38
2022-08-16T22:02:35.781Z,97254.94
2022-08-16T22:05:09.738Z,97255.66
2022-08-16T22:07:37.929Z,97259.58
2022-08-16T22:11:07.313Z,97263.96
2022-08-16T22:12:55.175Z,97263.38
2022-08-16T22:15:26.301Z,97264.63
2022-08-16T22:17:56.917Z,97267.91
2022-08-16T22:20:27.735Z,97268.05
2022-08-16T22:23:08.247Z,97267.33
2022-08-16T22:25:37.849Z,97258.83
2022-08-16T22:28:06.206Z,97256.96
2022-08-16T22:30:34.309Z,97264.38
2022-08-16T22:33:10.471Z,97265.31
2022-08-16T22:35:44.503Z,97268.29
2022-08-16T22:38:55.715Z,97273.38
2022-08-16T22:41:03.792Z,97276.39
2022-08-16T22:43:32.769Z,97276.15
2022-08-16T22:46:01.409Z,97278.47
2022-08-16T22:48:29.640Z,97276.56
2022-08-16T22:50:57.880Z,97275.45
2022-08-16T22:53:27.035Z,97278.93
2022-08-16T22:55:55.325Z,97278.38
2022-08-16T22:58:36.262Z,97277.02
2022-08-16T23:01:07.954Z,97274.98
2022-08-16T23:03:37.407Z,97273.15
2022-08-16T23:06:07.686Z,97271.09
2022-08-16T23:08:40.634Z,97270.88
2022-08-16T23:11:15.406Z,97269.94
2022-08-16T23:13:50.110Z,97271.85
2022-08-16T23:16:33.185Z,97272.15
2022-08-16T23:19:09.035Z,97273.02
2022-08-16T23:21:40.871Z,97275.16
2022-08-16T23:24:09.430Z,97276.10
2022-08-16T23:26:47.516Z,97275.23
2022-08-16T23:29:24.580Z,97276.52
2022-08-16T23:31:57.579Z,97273.39
2022-08-16T23:34:27.907Z,97268.35
2022-08-16T23:36:58.902Z,97265.97
2022-08-16T23:39:29.600Z,97267.77
2022-08-16T23:41:57.875Z,97268.55
2022-08-16T23:44:56.088Z,97272.98
2022-08-16T23:47:14.193Z,97273.55
2022-08-16T23:49:57.924Z,97266.59
2022-08-16T23:52:45.285Z,97271.08
2022-08-16T23:55:19.161Z,97271.16
2022-08-16T23:57:47.538Z,97269.44
